sensor_id;sensor_type;location;lat;lon;timestamp;pressure;altitude;pressure_sealevel;temperature;humidity
31082;BME280;17737;52.586;13.284;2023-04-19T00:00:25;102306.25;;;6.32;64.30
31082;BME280;17737;52.586;13.284;2023-04-19T00:02:56;102306.81;;;6.37;63.56
31082;BME280;17737;52.586;13.284;2023-04-19T00:05:24;102305.00;;;6.38;63.14
31082;BME280;17737;52.586;13.284;2023-04-19T00:07:55;102305.75;;;6.40;63.33
31082;BME280;17737;52.586;13.284;2023-04-19T00:10:23;102304.88;;;6.39;62.03
31082;BME280;17737;52.586;13.284;2023-04-19T00:12:51;102299.63;;;6.38;61.45
31082;BME280;17737;52.586;13.284;2023-04-19T00:15:19;102298.47;;;6.42;61.66
31082;BME280;17737;52.586;13.284;2023-04-19T00:17:47;102295.88;;;6.40;60.54
31082;BME280;17737;52.586;13.284;2023-04-19T00:20:16;102294.28;;;6.38;60.74
31082;BME280;17737;52.586;13.284;2023-04-19T00:22:43;102287.63;;;6.31;60.60
31082;BME280;17737;52.586;13.284;2023-04-19T00:25:13;102296.41;;;6.33;60.71
31082;BME280;17737;52.586;13.284;2023-04-19T00:27:41;102295.44;;;6.34;59.93
31082;BME280;17737;52.586;13.284;2023-04-19T00:30:10;102292.97;;;6.31;59.54
31082;BME280;17737;52.586;13.284;2023-04-19T00:32:39;102299.31;;;6.30;59.60
31082;BME280;17737;52.586;13.284;2023-04-19T00:35:07;102296.81;;;6.27;59.54
31082;BME280;17737;52.586;13.284;2023-04-19T00:37:36;102294.34;;;6.24;59.95
31082;BME280;17737;52.586;13.284;2023-04-19T00:40:05;102293.41;;;6.25;59.75
31082;BME280;17737;52.586;13.284;2023-04-19T00:42:36;102294.56;;;6.21;59.90
31082;BME280;17737;52.586;13.284;2023-04-19T00:45:05;102279.88;;;6.14;60.12
31082;BME280;17737;52.586;13.284;2023-04-19T00:47:34;102293.56;;;6.09;60.29
31082;BME280;17737;52.586;13.284;2023-04-19T00:50:04;102295.69;;;6.04;60.47
31082;BME280;17737;52.586;13.284;2023-04-19T00:52:35;102289.69;;;6.00;60.58
31082;BME280;17737;52.586;13.284;2023-04-19T00:55:04;102290.94;;;5.95;60.69
31082;BME280;17737;52.586;13.284;2023-04-19T00:57:36;102289.25;;;5.94;61.20
31082;BME280;17737;52.586;13.284;2023-04-19T01:00:05;102288.13;;;5.84;61.06
31082;BME280;17737;52.586;13.284;2023-04-19T01:02:35;102287.50;;;5.79;61.12
31082;BME280;17737;52.586;13.284;2023-04-19T01:05:04;102281.72;;;5.72;60.96
31082;BME280;17737;52.586;13.284;2023-04-19T01:07:32;102292.72;;;5.68;61.11
31082;BME280;17737;52.586;13.284;2023-04-19T01:10:01;102288.63;;;5.62;61.42
31082;BME280;17737;52.586;13.284;2023-04-19T01:12:29;102292.47;;;5.58;61.77
31082;BME280;17737;52.586;13.284;2023-04-19T01:14:59;102292.84;;;5.52;61.57
31082;BME280;17737;52.586;13.284;2023-04-19T01:17:27;102288.75;;;5.47;61.31
31082;BME280;17737;52.586;13.284;2023-04-19T01:19:59;102291.50;;;5.45;61.76
31082;BME280;17737;52.586;13.284;2023-04-19T01:22:29;102283.91;;;5.39;62.44
31082;BME280;17737;52.586;13.284;2023-04-19T01:24:58;102292.03;;;5.38;62.71
31082;BME280;17737;52.586;13.284;2023-04-19T01:27:26;102289.63;;;5.33;62.63
31082;BME280;17737;52.586;13.284;2023-04-19T01:29:54;102284.47;;;5.30;62.57
31082;BME280;17737;52.586;13.284;2023-04-19T01:32:22;102285.63;;;5.26;62.60
31082;BME280;17737;52.586;13.284;2023-04-19T01:34:51;102284.88;;;5.24;62.90
31082;BME280;17737;52.586;13.284;2023-04-19T01:37:20;102284.13;;;5.22;63.17
31082;BME280;17737;52.586;13.284;2023-04-19T01:39:49;102289.66;;;5.19;63.38
31082;BME280;17737;52.586;13.284;2023-04-19T01:42:17;102277.34;;;5.17;63.15
31082;BME280;17737;52.586;13.284;2023-04-19T01:44:46;102275.91;;;5.11;63.64
31082;BME280;17737;52.586;13.284;2023-04-19T01:47:14;102275.22;;;5.08;63.47
31082;BME280;17737;52.586;13.284;2023-04-19T01:49:42;102272.28;;;4.98;63.91
31082;BME280;17737;52.586;13.284;2023-04-19T01:52:10;102271.44;;;4.98;64.13
31082;BME280;17737;52.586;13.284;2023-04-19T01:54:38;102268.94;;;4.95;64.44
31082;BME280;17737;52.586;13.284;2023-04-19T01:57:07;102275.53;;;4.89;64.67
31082;BME280;17737;52.586;13.284;2023-04-19T01:59:35;102268.47;;;4.88;64.41
31082;BME280;17737;52.586;13.284;2023-04-19T02:02:05;102270.56;;;4.83;64.84
31082;BME280;17737;52.586;13.284;2023-04-19T02:04:34;102268.75;;;4.83;65.54
31082;BME280;17737;52.586;13.284;2023-04-19T02:07:03;102266.38;;;4.79;65.04
31082;BME280;17737;52.586;13.284;2023-04-19T02:09:34;102260.84;;;4.68;65.49
31082;BME280;17737;52.586;13.284;2023-04-19T02:12:03;102261.00;;;4.65;65.79
31082;BME280;17737;52.586;13.284;2023-04-19T02:14:34;102262.56;;;4.69;66.13
31082;BME280;17737;52.586;13.284;2023-04-19T02:17:02;102259.22;;;4.65;66.21
31082;BME280;17737;52.586;13.284;2023-04-19T02:19:30;102257.75;;;4.60;65.95
31082;BME280;17737;52.586;13.284;2023-04-19T02:21:59;102257.09;;;4.56;66.58
31082;BME280;17737;52.586;13.284;2023-04-19T02:24:27;102248.59;;;4.50;66.50
31082;BME280;17737;52.586;13.284;2023-04-19T02:26:55;102245.94;;;4.50;67.04
31082;BME280;17737;52.586;13.284;2023-04-19T02:29:23;102252.50;;;4.44;67.02
31082;BME280;17737;52.586;13.284;2023-04-19T02:31:53;102252.44;;;4.46;67.35
31082;BME280;17737;52.586;13.284;2023-04-19T02:34:21;102250.97;;;4.40;67.42
31082;BME280;17737;52.586;13.284;2023-04-19T02:36:49;102249.44;;;4.36;67.88
31082;BME280;17737;52.586;13.284;2023-04-19T02:39:17;102247.72;;;4.35;67.87
31082;BME280;17737;52.586;13.284;2023-04-19T02:41:46;102240.59;;;4.36;67.91
31082;BME280;17737;52.586;13.284;2023-04-19T02:44:14;102242.66;;;4.31;68.55
31082;BME280;17737;52.586;13.284;2023-04-19T02:46:47;102246.66;;;4.24;68.44
31082;BME280;17737;52.586;13.284;2023-04-19T02:49:17;102240.47;;;4.23;68.47
31082;BME280;17737;52.586;13.284;2023-04-19T02:51:47;102237.03;;;4.21;68.91
31082;BME280;17737;52.586;13.284;2023-04-19T02:54:17;102238.81;;;4.21;68.94
31082;BME280;17737;52.586;13.284;2023-04-19T02:56:45;102236.34;;;4.18;69.14
31082;BME280;17737;52.586;13.284;2023-04-19T02:59:13;102226.78;;;4.14;69.20
31082;BME280;17737;52.586;13.284;2023-04-19T03:01:41;102229.75;;;4.09;69.92
31082;BME280;17737;52.586;13.284;2023-04-19T03:04:10;102227.19;;;4.08;70.01
31082;BME280;17737;52.586;13.284;2023-04-19T03:06:40;102230.88;;;4.05;70.43
31082;BME280;17737;52.586;13.284;2023-04-19T03:09:09;102225.13;;;3.97;70.74
31082;BME280;17737;52.586;13.284;2023-04-19T03:11:38;102218.00;;;3.98;70.99
31082;BME280;17737;52.586;13.284;2023-04-19T03:14:06;102219.81;;;3.97;71.33
31082;BME280;17737;52.586;13.284;2023-04-19T03:16:34;102216.47;;;3.94;71.26
31082;BME280;17737;52.586;13.284;2023-04-19T03:19:03;102211.13;;;3.94;71.70
31082;BME280;17737;52.586;13.284;2023-04-19T03:21:31;102205.69;;;3.81;71.58
31082;BME280;17737;52.586;13.284;2023-04-19T03:24:00;102203.69;;;3.85;72.28
31082;BME280;17737;52.586;13.284;2023-04-19T03:26:28;102203.69;;;3.85;72.26
31082;BME280;17737;52.586;13.284;2023-04-19T03:28:56;102202.22;;;3.79;72.72
31082;BME280;17737;52.586;13.284;2023-04-19T03:31:24;102197.81;;;3.78;72.88
31082;BME280;17737;52.586;13.284;2023-04-19T03:33:53;102203.84;;;3.82;73.06
31082;BME280;17737;52.586;13.284;2023-04-19T03:36:21;102193.06;;;3.69;73.91
31082;BME280;17737;52.586;13.284;2023-04-19T03:38:48;102190.91;;;3.60;74.15
31082;BME280;17737;52.586;13.284;2023-04-19T03:41:18;102191.97;;;3.57;74.59
31082;BME280;17737;52.586;13.284;2023-04-19T03:43:47;102187.22;;;3.62;74.93
31082;BME280;17737;52.586;13.284;2023-04-19T03:46:15;102193.00;;;3.55;74.83
31082;BME280;17737;52.586;13.284;2023-04-19T03:48:43;102190.81;;;3.61;75.20
31082;BME280;17737;52.586;13.284;2023-04-19T03:51:11;102201.16;;;3.52;75.34
31082;BME280;17737;52.586;13.284;2023-04-19T03:53:41;102191.53;;;3.49;75.82
31082;BME280;17737;52.586;13.284;2023-04-19T03:56:09;102199.09;;;3.57;75.55
31082;BME280;17737;52.586;13.284;2023-04-19T03:58:39;102189.81;;;3.64;75.78
31082;BME280;17737;52.586;13.284;2023-04-19T04:01:16;102191.34;;;3.52;75.72
31082;BME280;17737;52.586;13.284;2023-04-19T04:03:45;102181.94;;;3.47;76.57
31082;BME280;17737;52.586;13.284;2023-04-19T04:06:13;102181.66;;;3.51;77.03
31082;BME280;17737;52.586;13.284;2023-04-19T04:08:41;102178.19;;;3.65;77.17
31082;BME280;17737;52.586;13.284;2023-04-19T04:11:10;102183.22;;;3.69;76.56
31082;BME280;17737;52.586;13.284;2023-04-19T04:13:39;102176.72;;;3.59;77.39
31082;BME280;17737;52.586;13.284;2023-04-19T04:16:08;102179.25;;;3.77;76.91
31082;BME280;17737;52.586;13.284;2023-04-19T04:18:36;102179.34;;;4.05;76.41
31082;BME280;17737;52.586;13.284;2023-04-19T04:21:04;102180.44;;;4.44;75.04
31082;BME280;17737;52.586;13.284;2023-04-19T04:23:32;102177.31;;;4.66;74.29
31082;BME280;17737;52.586;13.284;2023-04-19T04:26:00;102173.16;;;5.03;72.75
31082;BME280;17737;52.586;13.284;2023-04-19T04:28:30;102166.28;;;5.13;72.95
31082;BME280;17737;52.586;13.284;2023-04-19T04:31:00;102176.34;;;5.36;71.84
31082;BME280;17737;52.586;13.284;2023-04-19T04:33:28;102174.59;;;5.35;72.02
31082;BME280;17737;52.586;13.284;2023-04-19T04:35:56;102166.53;;;5.75;70.20
31082;BME280;17737;52.586;13.284;2023-04-19T04:38:24;102168.75;;;5.95;69.96
31082;BME280;17737;52.586;13.284;2023-04-19T04:40:53;102163.72;;;6.03;69.26
31082;BME280;17737;52.586;13.284;2023-04-19T04:43:24;102168.03;;;6.06;68.68
31082;BME280;17737;52.586;13.284;2023-04-19T04:45:55;102155.97;;;5.47;70.36
31082;BME280;17737;52.586;13.284;2023-04-19T04:48:25;102166.81;;;5.18;71.80
31082;BME280;17737;52.586;13.284;2023-04-19T04:50:53;102162.53;;;4.88;73.38
31082;BME280;17737;52.586;13.284;2023-04-19T04:53:22;102157.00;;;4.63;74.08
31082;BME280;17737;52.586;13.284;2023-04-19T04:55:53;102159.31;;;4.55;74.87
31082;BME280;17737;52.586;13.284;2023-04-19T04:58:21;102159.88;;;4.46;75.39
31082;BME280;17737;52.586;13.284;2023-04-19T05:00:49;102154.41;;;4.48;75.78
31082;BME280;17737;52.586;13.284;2023-04-19T05:03:17;102153.75;;;4.44;75.62
31082;BME280;17737;52.586;13.284;2023-04-19T05:05:46;102158.81;;;4.35;76.50
31082;BME280;17737;52.586;13.284;2023-04-19T05:08:14;102146.81;;;4.42;76.21
31082;BME280;17737;52.586;13.284;2023-04-19T05:10:43;102150.63;;;4.38;77.01
31082;BME280;17737;52.586;13.284;2023-04-19T05:13:11;102151.47;;;4.38;76.72
31082;BME280;17737;52.586;13.284;2023-04-19T05:15:39;102144.97;;;4.56;75.83
31082;BME280;17737;52.586;13.284;2023-04-19T05:18:07;102141.47;;;4.56;75.99
31082;BME280;17737;52.586;13.284;2023-04-19T05:20:35;102144.72;;;4.61;75.77
31082;BME280;17737;52.586;13.284;2023-04-19T05:23:04;102142.63;;;4.66;75.64
31082;BME280;17737;52.586;13.284;2023-04-19T05:25:33;102131.94;;;4.66;75.67
31082;BME280;17737;52.586;13.284;2023-04-19T05:28:02;102137.75;;;4.72;76.08
31082;BME280;17737;52.586;13.284;2023-04-19T05:30:30;102139.94;;;4.80;75.27
31082;BME280;17737;52.586;13.284;2023-04-19T05:32:58;102133.72;;;4.79;75.43
31082;BME280;17737;52.586;13.284;2023-04-19T05:35:26;102135.63;;;4.92;75.05
31082;BME280;17737;52.586;13.284;2023-04-19T05:37:54;102136.22;;;5.09;75.37
31082;BME280;17737;52.586;13.284;2023-04-19T05:40:24;102129.69;;;5.27;75.39
31082;BME280;17737;52.586;13.284;2023-04-19T05:42:52;102124.59;;;5.37;74.32
31082;BME280;17737;52.586;13.284;2023-04-19T05:45:20;102121.69;;;5.40;73.86
31082;BME280;17737;52.586;13.284;2023-04-19T05:47:49;102120.59;;;5.56;73.36
31082;BME280;17737;52.586;13.284;2023-04-19T05:50:17;102121.25;;;5.60;73.72
31082;BME280;17737;52.586;13.284;2023-04-19T05:52:46;102115.81;;;5.61;72.37
31082;BME280;17737;52.586;13.284;2023-04-19T05:55:14;102109.19;;;5.67;72.83
31082;BME280;17737;52.586;13.284;2023-04-19T05:57:44;102109.09;;;5.68;71.72
31082;BME280;17737;52.586;13.284;2023-04-19T06:00:13;102105.88;;;5.76;71.97
31082;BME280;17737;52.586;13.284;2023-04-19T06:02:42;102110.81;;;5.82;71.82
31082;BME280;17737;52.586;13.284;2023-04-19T06:05:11;102112.97;;;5.89;71.69
31082;BME280;17737;52.586;13.284;2023-04-19T06:07:39;102107.75;;;5.88;71.30
31082;BME280;17737;52.586;13.284;2023-04-19T06:10:20;102101.69;;;6.11;71.21
31082;BME280;17737;52.586;13.284;2023-04-19T06:12:49;102106.81;;;6.14;69.98
31082;BME280;17737;52.586;13.284;2023-04-19T06:15:17;102110.75;;;6.08;70.25
31082;BME280;17737;52.586;13.284;2023-04-19T06:17:47;102118.25;;;6.03;69.55
31082;BME280;17737;52.586;13.284;2023-04-19T06:20:18;102109.91;;;5.95;69.43
31082;BME280;17737;52.586;13.284;2023-04-19T06:22:47;102115.34;;;6.06;69.68
31082;BME280;17737;52.586;13.284;2023-04-19T06:25:17;102118.16;;;6.18;69.76
31082;BME280;17737;52.586;13.284;2023-04-19T06:27:45;102114.81;;;6.27;69.19
31082;BME280;17737;52.586;13.284;2023-04-19T06:30:14;102121.06;;;6.15;69.05
31082;BME280;17737;52.586;13.284;2023-04-19T06:32:44;102112.56;;;6.21;68.27
31082;BME280;17737;52.586;13.284;2023-04-19T06:35:13;102125.31;;;6.30;69.03
31082;BME280;17737;52.586;13.284;2023-04-19T06:37:41;102098.56;;;6.30;68.01
31082;BME280;17737;52.586;13.284;2023-04-19T06:40:10;102112.88;;;6.29;68.11
31082;BME280;17737;52.586;13.284;2023-04-19T06:42:38;102106.56;;;6.42;68.14
31082;BME280;17737;52.586;13.284;2023-04-19T06:45:07;102101.97;;;6.44;66.83
31082;BME280;17737;52.586;13.284;2023-04-19T06:47:37;102106.84;;;6.75;66.76
31082;BME280;17737;52.586;13.284;2023-04-19T06:50:06;102100.19;;;6.81;66.24
31082;BME280;17737;52.586;13.284;2023-04-19T06:52:36;102107.41;;;6.91;65.51
31082;BME280;17737;52.586;13.284;2023-04-19T06:59:11;102088.63;;;7.27;63.71
31082;BME280;17737;52.586;13.284;2023-04-19T07:01:41;102083.78;;;7.32;62.88
31082;BME280;17737;52.586;13.284;2023-04-19T07:04:28;102073.16;;;7.31;62.71
31082;BME280;17737;52.586;13.284;2023-04-19T07:07:00;102074.56;;;7.48;62.46
31082;BME280;17737;52.586;13.284;2023-04-19T07:09:34;102069.63;;;7.65;61.46
31082;BME280;17737;52.586;13.284;2023-04-19T07:12:02;102060.28;;;7.82;60.86
31082;BME280;17737;52.586;13.284;2023-04-19T07:14:31;102068.72;;;7.88;60.33
31082;BME280;17737;52.586;13.284;2023-04-19T07:16:59;102056.78;;;7.92;59.86
31082;BME280;17737;52.586;13.284;2023-04-19T07:19:29;102060.69;;;7.99;59.70
31082;BME280;17737;52.586;13.284;2023-04-19T07:21:57;102054.81;;;8.05;59.06
31082;BME280;17737;52.586;13.284;2023-04-19T07:24:25;102052.16;;;8.16;57.73
31082;BME280;17737;52.586;13.284;2023-04-19T07:26:55;102051.00;;;8.42;57.58
31082;BME280;17737;52.586;13.284;2023-04-19T07:29:23;102061.72;;;8.54;57.21
31082;BME280;17737;52.586;13.284;2023-04-19T07:31:51;102053.78;;;8.52;55.91
31082;BME280;17737;52.586;13.284;2023-04-19T07:34:20;102052.56;;;8.45;55.72
31082;BME280;17737;52.586;13.284;2023-04-19T07:36:50;102049.28;;;8.53;56.36
31082;BME280;17737;52.586;13.284;2023-04-19T07:39:18;102055.88;;;8.60;55.53
31082;BME280;17737;52.586;13.284;2023-04-19T07:41:47;102050.97;;;8.65;55.69
31082;BME280;17737;52.586;13.284;2023-04-19T07:44:15;102041.91;;;8.77;55.03
31082;BME280;17737;52.586;13.284;2023-04-19T07:46:44;102046.16;;;8.79;54.19
31082;BME280;17737;52.586;13.284;2023-04-19T07:49:12;102041.22;;;9.06;53.50
31082;BME280;17737;52.586;13.284;2023-04-19T07:51:40;102034.47;;;9.12;52.49
31082;BME280;17737;52.586;13.284;2023-04-19T07:54:10;102035.34;;;9.12;52.86
31082;BME280;17737;52.586;13.284;2023-04-19T07:56:38;102022.53;;;9.05;52.17
31082;BME280;17737;52.586;13.284;2023-04-19T07:59:06;102028.63;;;9.07;52.26
31082;BME280;17737;52.586;13.284;2023-04-19T08:01:37;102030.81;;;9.33;51.54
31082;BME280;17737;52.586;13.284;2023-04-19T08:04:05;102035.44;;;9.42;51.07
31082;BME280;17737;52.586;13.284;2023-04-19T08:06:36;102029.88;;;9.55;50.85
31082;BME280;17737;52.586;13.284;2023-04-19T08:09:05;102028.81;;;9.67;50.52
31082;BME280;17737;52.586;13.284;2023-04-19T08:11:34;102021.09;;;9.53;49.89
31082;BME280;17737;52.586;13.284;2023-04-19T08:14:02;102016.34;;;9.66;50.26
31082;BME280;17737;52.586;13.284;2023-04-19T08:16:47;102015.88;;;9.82;49.59
31082;BME280;17737;52.586;13.284;2023-04-19T08:19:20;102018.63;;;9.70;48.80
31082;BME280;17737;52.586;13.284;2023-04-19T08:21:48;102005.31;;;9.69;48.91
31082;BME280;17737;52.586;13.284;2023-04-19T08:24:16;102011.38;;;9.82;48.71
31082;BME280;17737;52.586;13.284;2023-04-19T08:26:45;102001.53;;;10.02;48.45
31082;BME280;17737;52.586;13.284;2023-04-19T08:29:19;102001.66;;;10.21;48.42
31082;BME280;17737;52.586;13.284;2023-04-19T08:31:48;102005.38;;;10.29;47.76
31082;BME280;17737;52.586;13.284;2023-04-19T08:34:16;101994.00;;;10.16;47.62
31082;BME280;17737;52.586;13.284;2023-04-19T08:36:44;101979.06;;;10.42;47.14
31082;BME280;17737;52.586;13.284;2023-04-19T08:39:28;101975.03;;;10.27;46.39
31082;BME280;17737;52.586;13.284;2023-04-19T08:42:03;101984.63;;;10.11;47.42
31082;BME280;17737;52.586;13.284;2023-04-19T08:44:44;101995.63;;;10.08;48.12
31082;BME280;17737;52.586;13.284;2023-04-19T08:47:16;101982.25;;;10.27;46.54
31082;BME280;17737;52.586;13.284;2023-04-19T08:49:58;101983.56;;;10.32;46.23
31082;BME280;17737;52.586;13.284;2023-04-19T08:52:46;101981.59;;;10.44;46.43
31082;BME280;17737;52.586;13.284;2023-04-19T08:55:27;101979.09;;;10.61;46.29
31082;BME280;17737;52.586;13.284;2023-04-19T08:57:57;101983.72;;;10.90;45.73
31082;BME280;17737;52.586;13.284;2023-04-19T09:00:26;101984.81;;;10.87;45.55
31082;BME280;17737;52.586;13.284;2023-04-19T09:02:54;101960.84;;;11.13;44.50
31082;BME280;17737;52.586;13.284;2023-04-19T09:05:24;101974.63;;;11.10;44.37
31082;BME280;17737;52.586;13.284;2023-04-19T09:07:52;101967.09;;;11.04;44.54
31082;BME280;17737;52.586;13.284;2023-04-19T09:10:20;101968.91;;;10.74;44.86
31082;BME280;17737;52.586;13.284;2023-04-19T09:13:01;101946.94;;;10.79;44.60
31082;BME280;17737;52.586;13.284;2023-04-19T09:15:35;101957.28;;;10.93;43.98
31082;BME280;17737;52.586;13.284;2023-04-19T09:18:06;101947.38;;;11.13;43.94
31082;BME280;17737;52.586;13.284;2023-04-19T09:20:37;101955.59;;;11.21;43.87
31082;BME280;17737;52.586;13.284;2023-04-19T09:23:06;101933.44;;;11.27;43.27
31082;BME280;17737;52.586;13.284;2023-04-19T09:25:38;101949.34;;;11.11;43.39
31082;BME280;17737;52.586;13.284;2023-04-19T09:28:27;101937.16;;;10.88;43.00
31082;BME280;17737;52.586;13.284;2023-04-19T09:30:56;101934.16;;;10.91;43.42
31082;BME280;17737;52.586;13.284;2023-04-19T09:33:45;101930.78;;;10.98;43.15
31082;BME280;17737;52.586;13.284;2023-04-19T09:36:26;101913.84;;;10.86;43.39
31082;BME280;17737;52.586;13.284;2023-04-19T09:38:55;101917.41;;;10.87;42.44
31082;BME280;17737;52.586;13.284;2023-04-19T09:41:24;101909.91;;;10.91;42.92
31082;BME280;17737;52.586;13.284;2023-04-19T09:44:08;101918.38;;;11.05;42.58
31082;BME280;17737;52.586;13.284;2023-04-19T09:46:57;101902.66;;;10.81;43.24
31082;BME280;17737;52.586;13.284;2023-04-19T09:49:25;101899.97;;;11.01;43.12
31082;BME280;17737;52.586;13.284;2023-04-19T09:52:13;101906.59;;;11.16;42.55
31082;BME280;17737;52.586;13.284;2023-04-19T09:54:41;101899.81;;;11.12;42.99
31082;BME280;17737;52.586;13.284;2023-04-19T09:57:11;101869.13;;;11.13;42.38
31082;BME280;17737;52.586;13.284;2023-04-19T09:59:41;101893.16;;;11.06;42.85
31082;BME280;17737;52.586;13.284;2023-04-19T10:02:10;101891.84;;;11.10;42.52
31082;BME280;17737;52.586;13.284;2023-04-19T10:04:41;101897.22;;;11.39;42.14
31082;BME280;17737;52.586;13.284;2023-04-19T10:07:16;101895.31;;;11.68;42.17
31082;BME280;17737;52.586;13.284;2023-04-19T10:09:57;101879.94;;;11.68;41.66
31082;BME280;17737;52.586;13.284;2023-04-19T10:12:47;101869.63;;;11.45;42.00
31082;BME280;17737;52.586;13.284;2023-04-19T10:15:40;101872.84;;;11.58;41.76
31082;BME280;17737;52.586;13.284;2023-04-19T10:18:19;101870.91;;;11.87;41.51
31082;BME280;17737;52.586;13.284;2023-04-19T10:20:52;101881.13;;;11.93;41.34
31082;BME280;17737;52.586;13.284;2023-04-19T10:23:25;101876.03;;;11.90;41.65
31082;BME280;17737;52.586;13.284;2023-04-19T10:25:56;101876.88;;;11.90;41.23
31082;BME280;17737;52.586;13.284;2023-04-19T10:28:27;101872.41;;;11.99;41.53
31082;BME280;17737;52.586;13.284;2023-04-19T10:30:58;101869.13;;;11.78;41.45
31082;BME280;17737;52.586;13.284;2023-04-19T10:33:29;101871.56;;;11.62;42.06
31082;BME280;17737;52.586;13.284;2023-04-19T10:35:58;101874.88;;;11.56;42.34
31082;BME280;17737;52.586;13.284;2023-04-19T10:38:38;101871.56;;;11.62;42.37
31082;BME280;17737;52.586;13.284;2023-04-19T10:41:09;101869.78;;;11.80;42.13
31082;BME280;17737;52.586;13.284;2023-04-19T10:43:44;101856.25;;;11.53;42.26
31082;BME280;17737;52.586;13.284;2023-04-19T10:46:35;101861.44;;;11.27;42.74
31082;BME280;17737;52.586;13.284;2023-04-19T10:49:06;101850.72;;;11.45;43.38
31082;BME280;17737;52.586;13.284;2023-04-19T10:51:55;101845.50;;;11.80;42.88
31082;BME280;17737;52.586;13.284;2023-04-19T10:58:30;101858.25;;;12.15;42.05
31082;BME280;17737;52.586;13.284;2023-04-19T11:01:36;101851.09;;;12.23;41.73
31082;BME280;17737;52.586;13.284;2023-04-19T11:04:07;101861.69;;;12.52;41.20
31082;BME280;17737;52.586;13.284;2023-04-19T11:06:37;101827.53;;;12.33;41.41
31082;BME280;17737;52.586;13.284;2023-04-19T11:09:23;101844.78;;;12.32;41.52
31082;BME280;17737;52.586;13.284;2023-04-19T11:11:53;101846.47;;;12.51;41.59
31082;BME280;17737;52.586;13.284;2023-04-19T11:14:24;101840.06;;;12.52;40.96
31082;BME280;17737;52.586;13.284;2023-04-19T11:16:55;101844.41;;;12.80;40.98
31082;BME280;17737;52.586;13.284;2023-04-19T11:19:23;101841.47;;;12.73;40.54
31082;BME280;17737;52.586;13.284;2023-04-19T11:21:51;101838.06;;;12.54;41.00
31082;BME280;17737;52.586;13.284;2023-04-19T11:24:24;101831.94;;;12.52;40.95
31082;BME280;17737;52.586;13.284;2023-04-19T11:26:54;101827.78;;;12.75;41.01
31082;BME280;17737;52.586;13.284;2023-04-19T11:29:24;101838.03;;;12.36;41.74
31082;BME280;17737;52.586;13.284;2023-04-19T11:31:52;101820.44;;;12.50;41.43
31082;BME280;17737;52.586;13.284;2023-04-19T11:34:23;101833.41;;;12.64;41.71
31082;BME280;17737;52.586;13.284;2023-04-19T11:36:51;101826.59;;;12.77;40.44
31082;BME280;17737;52.586;13.284;2023-04-19T11:39:21;101828.59;;;12.93;40.29
31082;BME280;17737;52.586;13.284;2023-04-19T11:41:49;101818.97;;;12.90;39.79
31082;BME280;17737;52.586;13.284;2023-04-19T11:44:18;101822.63;;;12.46;40.29
31082;BME280;17737;52.586;13.284;2023-04-19T11:47:04;101822.59;;;12.81;40.15
31082;BME280;17737;52.586;13.284;2023-04-19T11:49:34;101826.16;;;12.64;40.25
31082;BME280;17737;52.586;13.284;2023-04-19T11:52:04;101798.75;;;12.07;40.46
31082;BME280;17737;52.586;13.284;2023-04-19T11:54:32;101821.31;;;11.88;41.40
31082;BME280;17737;52.586;13.284;2023-04-19T11:57:02;101813.69;;;12.01;41.17
31082;BME280;17737;52.586;13.284;2023-04-19T11:59:32;101805.75;;;11.99;40.59
31082;BME280;17737;52.586;13.284;2023-04-19T12:02:08;101813.91;;;11.90;41.34
31082;BME280;17737;52.586;13.284;2023-04-19T12:04:40;101809.19;;;12.37;41.21
31082;BME280;17737;52.586;13.284;2023-04-19T12:07:11;101791.88;;;12.47;40.56
31082;BME280;17737;52.586;13.284;2023-04-19T12:09:39;101794.66;;;12.55;40.66
31082;BME280;17737;52.586;13.284;2023-04-19T12:12:07;101792.25;;;12.70;40.61
31082;BME280;17737;52.586;13.284;2023-04-19T12:14:35;101773.03;;;12.55;40.48
31082;BME280;17737;52.586;13.284;2023-04-19T12:17:05;101783.84;;;12.55;40.33
31082;BME280;17737;52.586;13.284;2023-04-19T12:19:36;101772.16;;;12.55;40.42
31082;BME280;17737;52.586;13.284;2023-04-19T12:22:11;101757.06;;;12.27;40.21
31082;BME280;17737;52.586;13.284;2023-04-19T12:24:41;101777.53;;;12.29;41.00
31082;BME280;17737;52.586;13.284;2023-04-19T12:27:10;101773.88;;;12.38;40.66
31082;BME280;17737;52.586;13.284;2023-04-19T12:29:38;101768.69;;;12.45;40.92
31082;BME280;17737;52.586;13.284;2023-04-19T12:32:09;101761.22;;;12.21;41.30
31082;BME280;17737;52.586;13.284;2023-04-19T12:34:38;101761.53;;;12.36;41.28
31082;BME280;17737;52.586;13.284;2023-04-19T12:37:06;101768.63;;;12.37;41.60
31082;BME280;17737;52.586;13.284;2023-04-19T12:39:36;101764.31;;;12.44;42.20
31082;BME280;17737;52.586;13.284;2023-04-19T12:42:04;101766.47;;;12.23;41.89
31082;BME280;17737;52.586;13.284;2023-04-19T12:44:32;101757.38;;;12.24;41.39
31082;BME280;17737;52.586;13.284;2023-04-19T12:47:00;101761.84;;;12.15;41.33
31082;BME280;17737;52.586;13.284;2023-04-19T12:49:28;101763.00;;;12.30;40.07
31082;BME280;17737;52.586;13.284;2023-04-19T12:51:57;101757.38;;;12.06;39.89
31082;BME280;17737;52.586;13.284;2023-04-19T12:54:26;101737.91;;;12.02;38.98
31082;BME280;17737;52.586;13.284;2023-04-19T12:56:56;101732.50;;;12.02;38.96
31082;BME280;17737;52.586;13.284;2023-04-19T12:59:24;101728.03;;;12.11;38.79
31082;BME280;17737;52.586;13.284;2023-04-19T13:01:53;101726.69;;;12.50;38.00
31082;BME280;17737;52.586;13.284;2023-04-19T13:04:21;101708.34;;;12.87;37.39
31082;BME280;17737;52.586;13.284;2023-04-19T13:06:50;101706.91;;;13.01;35.67
31082;BME280;17737;52.586;13.284;2023-04-19T13:09:18;101706.19;;;12.91;34.98